Time;durP1;ratioP1;P1;durP2;ratioP2;P2;SDS_P1;SDS_P2;PMS_P1;PMS_P2;Temp;Humidity;BMP_temperature;BMP_pressure;BME280_temperature;BME280_humidity;BME280_pressure;Samples;Min_cycle;Max_cycle;Signal;HPM_P1;HPM_P2
2022/10/30 00:01:34;;;;;;;13.25;4.15;;;20.00;53.30;;;;;;4999243;28;20054;-50
2022/10/30 00:04:03;;;;;;;9.45;3.83;;;20.00;53.40;;;;;;5000573;28;20049;-47
2022/10/30 00:06:30;;;;;;;12.50;4.28;;;20.00;53.50;;;;;;5000249;28;20068;-49
2022/10/30 00:08:57;;;;;;;7.68;4.13;;;20.00;53.40;;;;;;4999924;28;20422;-48
2022/10/30 00:11:25;;;;;;;9.43;4.57;;;20.00;53.40;;;;;;5000097;28;20050;-47
2022/10/30 00:13:52;;;;;;;11.75;4.43;;;20.00;53.40;;;;;;5002897;28;20438;-47
2022/10/30 00:16:19;;;;;;;8.63;4.25;;;20.00;53.30;;;;;;5000908;28;20053;-47
2022/10/30 00:18:46;;;;;;;9.65;4.85;;;20.00;53.30;;;;;;5002123;28;20061;-45
2022/10/30 00:21:16;;;;;;;11.95;4.82;;;20.00;53.40;;;;;;5000835;28;20057;-49
2022/10/30 00:23:45;;;;;;;9.43;4.55;;;20.00;53.40;;;;;;5001883;28;20077;-46
2022/10/30 00:26:13;;;;;;;18.77;4.43;;;20.00;53.30;;;;;;5000202;28;20053;-49
2022/10/30 00:28:40;;;;;;;14.65;5.35;;;20.00;53.30;;;;;;5003024;28;20061;-45
2022/10/30 00:31:07;;;;;;;11.07;4.57;;;20.00;53.30;;;;;;4998918;28;20060;-47
2022/10/30 00:33:34;;;;;;;12.80;4.55;;;20.10;53.40;;;;;;5002127;28;20494;-48
2022/10/30 00:36:02;;;;;;;14.80;4.93;;;20.00;53.30;;;;;;4999229;28;20064;-47
2022/10/30 00:38:31;;;;;;;10.70;4.40;;;20.00;53.30;;;;;;4997098;28;20058;-50
2022/10/30 00:40:59;;;;;;;13.85;4.95;;;20.00;53.40;;;;;;5001024;28;20050;-49
2022/10/30 00:43:33;;;;;;;10.00;4.80;;;20.00;53.40;;;;;;5007392;28;20077;-48
2022/10/30 00:46:05;;;;;;;12.93;4.43;;;20.00;53.50;;;;;;5004867;28;20061;-50
2022/10/30 00:48:33;;;;;;;11.98;4.88;;;20.00;53.40;;;;;;5006027;28;20057;-45
2022/10/30 00:51:03;;;;;;;11.05;4.65;;;20.00;53.40;;;;;;5003987;28;20058;-49
2022/10/30 00:53:32;;;;;;;11.80;4.63;;;20.00;53.90;;;;;;5003960;28;20418;-43
2022/10/30 00:56:04;;;;;;;12.15;4.70;;;19.90;53.40;;;;;;5004998;28;20052;-45
2022/10/30 00:58:36;;;;;;;9.13;4.45;;;20.00;53.50;;;;;;5001959;28;20058;-49
2022/10/30 01:01:06;;;;;;;14.75;4.82;;;19.90;53.40;;;;;;5002271;28;20493;-48
2022/10/30 01:03:34;;;;;;;13.35;4.90;;;19.90;53.40;;;;;;5006542;28;20058;-48
2022/10/30 01:06:06;;;;;;;11.93;4.80;;;19.90;53.40;;;;;;5004888;28;20441;-49
2022/10/30 01:08:35;;;;;;;14.00;5.28;;;19.90;53.40;;;;;;5002437;28;20049;-48
2022/10/30 01:11:04;;;;;;;14.43;4.55;;;19.90;53.40;;;;;;5001499;28;20080;-48
2022/10/30 01:13:33;;;;;;;11.02;4.53;;;19.80;53.40;;;;;;5004145;28;21384;-44
2022/10/30 01:16:14;;;;;;;13.40;4.90;;;19.80;53.40;;;;;;5002911;28;20057;-48
2022/10/30 01:18:51;;;;;;;11.45;5.60;;;19.80;53.40;;;;;;5001955;28;20058;-48
2022/10/30 01:21:33;;;;;;;12.32;4.95;;;19.80;53.40;;;;;;5004469;28;20054;-49
2022/10/30 01:24:21;;;;;;;10.70;4.90;;;19.80;53.40;;;;;;5004314;28;20768;-47
2022/10/30 01:26:56;;;;;;;11.18;4.60;;;19.70;53.40;;;;;;5005927;28;20069;-44
2022/10/30 01:29:35;;;;;;;12.43;4.50;;;19.70;53.40;;;;;;5006199;28;20062;-48
2022/10/30 01:32:19;;;;;;;13.18;4.68;;;19.70;53.50;;;;;;5000320;28;21225;-50
2022/10/30 01:34:55;;;;;;;12.15;5.25;;;19.70;53.60;;;;;;5005282;28;20061;-49
2022/10/30 01:37:29;;;;;;;8.88;4.45;;;19.70;53.50;;;;;;5001597;28;20054;-49
2022/10/30 01:40:03;;;;;;;;;;;19.60;53.50;;;;;;5004152;28;20046;-49
2022/10/30 01:42:45;;;;;;;14.65;4.80;;;19.70;53.60;;;;;;5006633;28;19932;-49
2022/10/30 01:45:16;;;;;;;8.85;4.50;;;19.60;53.40;;;;;;5004260;28;20046;-46
2022/10/30 01:47:56;;;;;;;10.55;4.70;;;19.60;53.40;;;;;;5003348;28;20504;-49
2022/10/30 01:50:32;;;;;;;11.35;4.47;;;19.60;53.50;;;;;;5003150;28;20502;-50
2022/10/30 01:53:08;;;;;;;11.20;4.40;;;19.60;53.60;;;;;;4999778;28;20054;-48
2022/10/30 01:55:45;;;;;;;8.93;3.97;;;19.60;53.60;;;;;;5004383;28;20410;-49
2022/10/30 01:58:20;;;;;;;7.88;4.35;;;19.60;53.60;;;;;;5004854;28;20057;-50
2022/10/30 02:00:52;;;;;;;10.82;4.82;;;19.50;53.50;;;;;;4998901;28;20538;-49
2022/10/30 02:03:21;;;;;;;9.05;4.18;;;19.50;53.50;;;;;;5005719;28;20502;-46
2022/10/30 02:05:50;;;;;;;9.52;4.75;;;19.50;53.60;;;;;;5001561;28;20053;-47
2022/10/30 02:08:18;;;;;;;12.07;4.63;;;19.50;53.60;;;;;;5002811;28;20053;-50
2022/10/30 02:10:48;;;;;;;12.55;4.80;;;19.50;53.60;;;;;;4994640;28;20053;-47
2022/10/30 02:13:16;;;;;;;9.13;4.40;;;19.50;53.60;;;;;;5002962;28;20528;-46
2022/10/30 02:15:45;;;;;;;11.98;4.95;;;19.50;53.70;;;;;;4999989;28;20045;-49
2022/10/30 02:18:12;;;;;;;10.82;4.65;;;19.50;53.70;;;;;;5004027;28;20049;-50
2022/10/30 02:20:40;;;;;;;10.80;4.20;;;19.50;53.70;;;;;;5000655;28;20060;-51
2022/10/30 02:23:12;;;;;;;10.57;4.93;;;19.50;53.60;;;;;;5002955;28;20054;-50
2022/10/30 02:25:39;;;;;;;9.20;4.28;;;19.50;53.70;;;;;;5001347;28;20050;-44
2022/10/30 02:28:06;;;;;;;14.35;4.53;;;19.40;53.60;;;;;;5003752;28;20061;-45
2022/10/30 02:30:33;;;;;;;8.57;4.32;;;19.50;53.70;;;;;;4999517;28;20405;-53
2022/10/30 02:33:01;;;;;;;11.73;4.15;;;19.40;53.70;;;;;;5002132;28;20510;-51
2022/10/30 02:35:29;;;;;;;8.75;4.47;;;19.50;53.70;;;;;;5003979;28;20054;-51
2022/10/30 02:37:57;;;;;;;12.50;4.32;;;19.40;53.70;;;;;;4998986;28;20053;-45
2022/10/30 02:40:24;;;;;;;9.77;4.25;;;19.40;53.70;;;;;;4997219;28;20056;-47
2022/10/30 02:42:52;;;;;;;7.88;4.60;;;19.40;54.20;;;;;;4996243;28;20057;-48
2022/10/30 02:45:19;;;;;;;14.18;4.60;;;19.40;53.80;;;;;;5001035;28;20061;-47
2022/10/30 02:47:47;;;;;;;10.70;4.90;;;19.40;53.80;;;;;;5003491;28;20066;-46
2022/10/30 02:50:14;;;;;;;13.30;4.93;;;19.40;53.80;;;;;;5001595;28;20064;-52
2022/10/30 02:52:41;;;;;;;9.18;4.70;;;19.30;53.80;;;;;;5000827;28;20482;-52
2022/10/30 02:55:10;;;;;;;9.68;4.68;;;19.30;53.80;;;;;;5002847;28;20054;-47
2022/10/30 02:57:37;;;;;;;12.40;4.95;;;19.40;53.90;;;;;;4997718;28;20050;-46
2022/10/30 03:00:05;;;;;;;19.35;4.70;;;19.30;53.90;;;;;;5000479;28;20053;-47
2022/10/30 03:02:33;;;;;;;8.40;4.32;;;19.30;53.90;;;;;;5000787;28;20057;-48
2022/10/30 03:05:00;;;;;;;14.95;4.68;;;19.30;53.90;;;;;;5000605;28;20390;-53
2022/10/30 03:07:30;;;;;;;11.38;4.57;;;19.30;53.80;;;;;;5003193;28;20545;-50
2022/10/30 03:09:58;;;;;;;12.30;5.05;;;19.30;53.80;;;;;;5014284;28;20053;-53
2022/10/30 03:12:26;;;;;;;11.07;4.70;;;19.20;54.30;;;;;;5011300;28;20053;-55
2022/10/30 03:14:53;;;;;;;9.75;4.78;;;19.20;53.80;;;;;;5009755;28;20057;-54
2022/10/30 03:17:20;;;;;;;8.10;4.40;;;19.20;53.80;;;;;;5009504;28;20557;-54
2022/10/30 03:19:48;;;;;;;11.93;4.63;;;19.20;53.80;;;;;;5010167;28;20054;-54
2022/10/30 03:22:15;;;;;;;10.27;4.70;;;19.20;53.80;;;;;;5007650;28;20058;-54
2022/10/30 03:24:42;;;;;;;16.85;5.15;;;19.20;53.80;;;;;;5008147;28;20996;-54
2022/10/30 03:27:09;;;;;;;11.65;4.32;;;19.20;53.90;;;;;;5010284;28;20058;-54
2022/10/30 03:29:38;;;;;;;9.02;4.50;;;19.10;53.80;;;;;;5011981;28;20061;-54
2022/10/30 03:32:09;;;;;;;15.13;5.65;;;19.10;53.70;;;;;;5006474;28;20053;-54
2022/10/30 03:34:36;;;;;;;10.55;4.72;;;19.10;53.70;;;;;;5008352;28;20054;-54
2022/10/30 03:37:04;;;;;;;8.00;4.15;;;19.10;53.80;;;;;;5009536;28;20076;-50
2022/10/30 03:39:31;;;;;;;9.60;4.35;;;19.00;53.70;;;;;;5004716;28;20050;-54
2022/10/30 03:41:58;;;;;;;12.75;4.68;;;19.00;53.70;;;;;;4994769;28;20057;-55
2022/10/30 03:44:26;;;;;;;14.52;5.03;;;19.00;53.80;;;;;;4989471;28;20410;-55
2022/10/30 03:46:54;;;;;;;10.57;4.65;;;19.00;53.80;;;;;;4991052;28;20050;-54
2022/10/30 03:49:21;;;;;;;12.27;4.75;;;18.90;53.80;;;;;;4990998;28;20066;-54
2022/10/30 03:55:11;;;;;;;8.93;4.35;;;18.90;53.80;;;;;;4990611;28;20057;-54
2022/10/30 03:57:38;;;;;;;12.93;5.03;;;18.90;53.80;;;;;;4992023;28;20054;-55
2022/10/30 04:00:07;;;;;;;11.32;4.05;;;18.80;53.80;;;;;;4992406;28;20059;-55
2022/10/30 04:02:35;;;;;;;11.68;4.75;;;18.80;53.80;;;;;;4993926;28;20046;-51
2022/10/30 04:05:02;;;;;;;8.95;4.40;;;18.80;53.90;;;;;;4992150;28;20054;-54
2022/10/30 04:07:30;;;;;;;11.65;4.40;;;18.80;53.90;;;;;;4973634;28;20065;-54
2022/10/30 04:09:57;;;;;;;11.15;4.55;;;18.80;53.90;;;;;;4970114;28;20426;-53
2022/10/30 04:12:24;;;;;;;10.80;4.45;;;18.80;54.00;;;;;;4969814;28;20061;-54
2022/10/30 04:14:52;;;;;;;11.73;4.63;;;18.70;54.00;;;;;;4970645;28;20058;-55
2022/10/30 04:17:19;;;;;;;10.93;5.07;;;18.70;54.00;;;;;;4973219;28;20062;-51
2022/10/30 04:19:48;;;;;;;9.43;3.90;;;18.70;54.00;;;;;;4973236;28;20062;-54
2022/10/30 04:22:15;;;;;;;9.38;4.47;;;18.70;54.00;;;;;;4972152;28;20054;-55
2022/10/30 04:24:43;;;;;;;8.07;4.43;;;18.70;54.10;;;;;;4971358;28;20066;-53
2022/10/30 04:27:12;;;;;;;8.68;4.45;;;18.60;54.00;;;;;;4971042;28;20057;-55
2022/10/30 04:29:40;;;;;;;10.93;4.45;;;18.60;54.10;;;;;;4971148;28;20055;-54
2022/10/30 04:32:08;;;;;;;9.70;4.47;;;18.60;54.10;;;;;;4972452;28;20058;-54
2022/10/30 04:34:35;;;;;;;17.42;6.45;;;18.60;54.20;;;;;;4971967;28;20065;-54
2022/10/30 04:37:03;;;;;;;18.00;8.43;;;18.60;54.20;;;;;;4970601;28;20050;-52
2022/10/30 04:39:31;;;;;;;14.07;6.97;;;18.60;54.20;;;;;;4968326;28;20054;-55
2022/10/30 04:41:58;;;;;;;13.18;5.95;;;18.60;54.20;;;;;;4967744;28;20487;-52
2022/10/30 04:44:25;;;;;;;13.85;4.68;;;18.50;54.20;;;;;;4970999;28;20062;-55
2022/10/30 04:46:52;;;;;;;15.48;5.03;;;18.50;54.30;;;;;;4968180;28;20058;-54
2022/10/30 04:49:19;;;;;;;13.13;5.68;;;18.50;54.30;;;;;;4968962;28;20080;-55
2022/10/30 04:51:46;;;;;;;9.02;4.75;;;18.50;54.30;;;;;;4970156;28;20418;-54
2022/10/30 04:54:15;;;;;;;9.95;5.28;;;18.50;54.30;;;;;;4966688;28;20089;-52
2022/10/30 04:56:42;;;;;;;11.77;4.75;;;18.50;54.40;;;;;;4970325;28;20057;-55
2022/10/30 04:59:09;;;;;;;20.42;5.93;;;18.40;54.40;;;;;;4971891;28;20093;-55
2022/10/30 05:01:36;;;;;;;15.23;6.68;;;18.40;54.40;;;;;;4970049;28;20058;-55
2022/10/30 05:04:03;;;;;;;43.72;22.02;;;18.40;54.50;;;;;;4971225;28;20067;-55
2022/10/30 05:06:31;;;;;;;19.33;11.25;;;18.40;54.50;;;;;;5009052;23;20405;-55
2022/10/30 05:08:58;;;;;;;15.65;6.45;;;18.40;54.50;;;;;;5029284;28;20057;-52
2022/10/30 05:11:27;;;;;;;13.48;5.40;;;18.40;54.50;;;;;;5027115;28;20061;-53
2022/10/30 05:13:54;;;;;;;14.02;6.38;;;18.30;54.50;;;;;;5028547;28;20049;-52
2022/10/30 05:16:21;;;;;;;13.15;5.57;;;18.30;54.50;;;;;;5027390;28;20049;-53
2022/10/30 05:18:48;;;;;;;10.73;5.18;;;18.40;54.60;;;;;;5027234;28;20049;-54
2022/10/30 05:21:15;;;;;;;10.20;4.95;;;18.30;54.60;;;;;;5028684;28;20057;-54
2022/10/30 05:23:42;;;;;;;12.98;4.78;;;18.30;54.60;;;;;;5030720;28;20061;-55
2022/10/30 05:26:10;;;;;;;12.90;4.82;;;18.30;54.60;;;;;;5030527;28;20045;-52
2022/10/30 05:28:39;;;;;;;9.63;5.53;;;18.30;54.70;;;;;;5035258;28;20998;-53
2022/10/30 05:31:07;;;;;;;11.23;5.43;;;18.30;54.70;;;;;;5033893;28;20053;-53
2022/10/30 05:33:34;;;;;;;16.35;7.53;;;18.30;54.70;;;;;;5034429;28;20041;-54
2022/10/30 05:36:01;;;;;;;16.10;7.55;;;18.20;54.70;;;;;;5034514;28;20060;-51
2022/10/30 05:38:28;;;;;;;18.83;6.22;;;18.20;54.70;;;;;;5034454;28;20061;-54
2022/10/30 05:40:55;;;;;;;13.95;5.57;;;18.20;54.70;;;;;;5034001;28;20049;-54
2022/10/30 05:43:22;;;;;;;12.02;5.40;;;18.20;54.70;;;;;;5034833;28;20053;-54
2022/10/30 05:45:51;;;;;;;10.98;4.72;;;18.20;54.80;;;;;;5030035;28;20061;-54
2022/10/30 05:48:18;;;;;;;10.35;5.35;;;18.20;54.80;;;;;;5035321;28;20060;-52
2022/10/30 05:50:45;;;;;;;15.63;5.25;;;18.20;54.80;;;;;;5024822;28;20054;-55
2022/10/30 05:53:13;;;;;;;9.88;5.32;;;18.20;54.80;;;;;;5028302;28;20053;-51
2022/10/30 05:55:40;;;;;;;14.57;5.15;;;18.10;54.80;;;;;;5022963;28;20064;-51
2022/10/30 05:58:07;;;;;;;9.88;5.07;;;18.10;54.80;;;;;;5034272;28;20057;-53
2022/10/30 06:00:36;;;;;;;10.80;5.00;;;18.10;54.90;;;;;;5029151;28;20492;-55
2022/10/30 06:03:07;;;;;;;10.25;5.38;;;18.10;54.90;;;;;;5025938;28;20066;-55
2022/10/30 06:05:35;;;;;;;11.18;5.28;;;18.10;54.90;;;;;;5034210;28;20053;-55
2022/10/30 06:08:03;;;;;;;23.38;5.32;;;18.10;54.90;;;;;;5052701;28;20504;-50
2022/10/30 06:10:31;;;;;;;16.17;5.40;;;18.10;55.00;;;;;;5045547;28;20523;-55
2022/10/30 06:13:01;;;;;;;13.52;6.63;;;18.10;55.00;;;;;;5050095;28;20059;-54
2022/10/30 06:15:29;;;;;;;11.35;5.18;;;18.10;55.10;;;;;;5052992;28;20059;-54
2022/10/30 06:17:57;;;;;;;14.65;4.85;;;18.00;55.00;;;;;;5053784;28;20397;-55
2022/10/30 06:20:27;;;;;;;11.55;5.15;;;18.10;55.10;;;;;;5048442;28;20048;-50
2022/10/30 06:22:55;;;;;;;9.05;5.10;;;18.00;55.10;;;;;;5053908;28;20057;-52
2022/10/30 06:25:22;;;;;;;13.88;5.95;;;18.00;55.10;;;;;;5046870;28;20057;-55
2022/10/30 06:27:50;;;;;;;11.13;4.82;;;18.00;55.10;;;;;;5048870;28;20041;-55
2022/10/30 06:30:17;;;;;;;9.82;4.63;;;18.00;55.10;;;;;;5051789;28;20061;-55
2022/10/30 06:32:44;;;;;;;13.35;5.32;;;18.00;55.20;;;;;;5047100;28;20428;-54
2022/10/30 06:35:11;;;;;;;16.10;5.75;;;18.00;55.20;;;;;;5047331;28;20072;-55
2022/10/30 06:37:45;;;;;;;10.93;5.30;;;18.00;55.20;;;;;;5047564;28;20052;-56
2022/10/30 06:40:12;;;;;;;13.93;5.30;;;18.00;55.30;;;;;;5046562;28;20061;-54
2022/10/30 06:42:43;;;;;;;9.48;4.90;;;18.00;55.20;;;;;;5051685;28;20049;-55
2022/10/30 06:45:11;;;;;;;13.38;5.25;;;17.90;55.20;;;;;;5051123;28;20052;-53
2022/10/30 06:47:39;;;;;;;9.60;5.13;;;17.90;55.20;;;;;;5052569;28;20149;-55
2022/10/30 06:50:08;;;;;;;12.18;4.88;;;17.90;55.20;;;;;;5051372;28;20059;-51
2022/10/30 06:52:35;;;;;;;13.40;4.90;;;17.90;55.20;;;;;;5051553;28;20053;-54
2022/10/30 06:55:04;;;;;;;15.15;5.50;;;17.90;55.30;;;;;;5049634;28;20060;-55
2022/10/30 06:57:32;;;;;;;13.23;5.10;;;17.90;55.30;;;;;;5048102;28;20051;-55
2022/10/30 06:59:59;;;;;;;20.67;8.50;;;17.90;55.30;;;;;;5047744;28;20068;-52
2022/10/30 07:02:26;;;;;;;20.63;9.38;;;17.90;55.40;;;;;;5038279;28;20519;-55
2022/10/30 07:04:53;;;;;;;14.25;5.85;;;17.90;55.40;;;;;;5043493;28;20055;-52
2022/10/30 07:07:20;;;;;;;12.13;5.70;;;17.90;55.50;;;;;;5050689;28;20056;-50
2022/10/30 07:09:47;;;;;;;16.05;5.40;;;17.90;55.50;;;;;;5040551;28;20065;-53
2022/10/30 07:12:16;;;;;;;12.75;5.25;;;17.90;55.50;;;;;;5049779;28;20500;-50
2022/10/30 07:14:43;;;;;;;11.93;5.32;;;17.90;55.60;;;;;;5052684;28;20053;-54
2022/10/30 07:17:10;;;;;;;8.55;4.95;;;17.90;55.60;;;;;;5048597;28;20045;-55
2022/10/30 07:19:38;;;;;;;11.05;4.90;;;17.90;55.60;;;;;;5050571;28;20057;-55
2022/10/30 07:22:05;;;;;;;10.70;5.53;;;17.90;55.70;;;;;;5049232;28;21238;-53
2022/10/30 07:24:32;;;;;;;14.27;5.88;;;17.80;56.10;;;;;;5047568;28;20851;-55
2022/10/30 07:26:59;;;;;;;7.97;5.43;;;17.90;55.80;;;;;;5048769;28;20680;-55
2022/10/30 07:29:28;;;;;;;14.50;5.80;;;17.90;55.80;;;;;;5049785;28;20067;-56
2022/10/30 07:31:55;;;;;;;14.48;5.60;;;17.90;55.90;;;;;;5046162;28;20076;-50
2022/10/30 07:34:22;;;;;;;13.32;5.68;;;17.90;55.90;;;;;;5047957;28;20049;-55
2022/10/30 07:36:49;;;;;;;11.25;5.13;;;17.90;55.90;;;;;;5042499;28;20056;-51
2022/10/30 07:39:16;;;;;;;10.70;5.63;;;17.90;56.00;;;;;;5045611;28;20053;-51
2022/10/30 07:41:43;;;;;;;13.27;5.38;;;17.90;56.00;;;;;;5043963;28;20420;-55
2022/10/30 07:44:10;;;;;;;10.60;5.30;;;17.90;56.10;;;;;;5045341;28;20063;-55
2022/10/30 07:46:39;;;;;;;14.85;5.88;;;17.90;56.10;;;;;;5048530;28;20060;-55
2022/10/30 07:49:06;;;;;;;12.38;5.22;;;17.90;56.20;;;;;;5049182;28;20053;-55
2022/10/30 07:51:33;;;;;;;10.15;5.60;;;17.90;56.20;;;;;;5047479;28;20048;-55
2022/10/30 07:54:00;;;;;;;12.70;5.43;;;17.90;56.20;;;;;;5048539;28;20061;-55
2022/10/30 07:56:28;;;;;;;11.77;5.60;;;18.00;56.20;;;;;;5047146;28;20053;-54
2022/10/30 07:58:55;;;;;;;11.10;5.43;;;18.00;56.30;;;;;;5047527;28;20048;-56
2022/10/30 08:01:22;;;;;;;14.77;5.70;;;18.00;56.30;;;;;;5047051;28;20064;-55
2022/10/30 08:03:51;;;;;;;13.57;5.88;;;18.00;56.30;;;;;;5047422;28;20822;-53
2022/10/30 08:06:18;;;;;;;17.65;6.22;;;18.00;56.40;;;;;;5047040;28;20412;-54
2022/10/30 08:08:45;;;;;;;10.85;5.65;;;18.10;56.40;;;;;;5047790;28;20049;-52
2022/10/30 08:11:12;;;;;;;10.32;5.85;;;18.10;56.50;;;;;;5047525;28;20059;-54
2022/10/30 08:13:39;;;;;;;16.20;5.82;;;18.10;56.50;;;;;;5049059;28;20068;-51
2022/10/30 08:16:07;;;;;;;11.70;5.65;;;18.20;56.60;;;;;;5051412;28;20060;-50
2022/10/30 08:18:34;;;;;;;11.80;5.35;;;18.20;56.60;;;;;;5048671;28;20063;-54
2022/10/30 08:21:03;;;;;;;9.85;4.93;;;18.20;56.60;;;;;;5049701;28;20055;-55
2022/10/30 08:23:30;;;;;;;11.23;4.68;;;18.20;56.50;;;;;;5050136;28;20060;-56
2022/10/30 08:25:59;;;;;;;13.93;5.15;;;18.20;56.50;;;;;;5047975;28;20065;-56
2022/10/30 08:28:27;;;;;;;12.98;4.63;;;18.30;56.60;;;;;;5049973;28;20049;-55
2022/10/30 08:30:54;;;;;;;11.07;4.88;;;18.30;56.70;;;;;;5048845;28;20552;-55
2022/10/30 08:33:21;;;;;;;10.90;5.15;;;18.30;56.60;;;;;;5051258;28;20056;-56
2022/10/30 08:35:49;;;;;;;16.15;5.07;;;18.40;56.60;;;;;;5049708;28;20064;-56
2022/10/30 08:38:18;;;;;;;7.50;4.53;;;18.40;56.60;;;;;;5050327;28;20052;-55
2022/10/30 08:40:46;;;;;;;11.90;5.15;;;18.40;56.60;;;;;;5047842;28;21354;-55
2022/10/30 08:43:13;;;;;;;11.32;4.97;;;18.50;56.60;;;;;;5049633;28;20053;-55
2022/10/30 08:45:41;;;;;;;12.90;5.00;;;18.50;56.60;;;;;;5047296;28;20067;-55
2022/10/30 08:48:11;;;;;;;9.73;5.07;;;18.50;56.60;;;;;;5050070;28;20052;-55
2022/10/30 08:50:38;;;;;;;12.93;4.93;;;18.60;56.60;;;;;;5049310;28;20067;-56
2022/10/30 08:53:07;;;;;;;13.70;5.30;;;18.60;56.60;;;;;;5050916;28;20060;-54
2022/10/30 08:55:36;;;;;;;9.77;4.57;;;18.60;56.60;;;;;;5050173;28;20061;-55
2022/10/30 08:58:04;;;;;;;12.43;4.85;;;18.70;56.50;;;;;;5051741;28;20060;-52
2022/10/30 09:00:31;;;;;;;15.75;5.10;;;18.70;56.50;;;;;;5050603;28;20424;-55
2022/10/30 09:02:58;;;;;;;11.88;4.25;;;18.80;56.60;;;;;;5052390;28;20049;-56
2022/10/30 09:05:26;;;;;;;14.32;4.38;;;18.80;56.50;;;;;;5053780;23;20053;-56
2022/10/30 09:07:56;;;;;;;14.02;4.50;;;18.90;56.50;;;;;;5034382;28;20409;-56
2022/10/30 09:10:23;;;;;;;18.52;5.15;;;18.90;56.40;;;;;;5033557;28;20054;-51
2022/10/30 09:12:55;;;;;;;15.15;4.68;;;18.90;56.20;;;;;;5034121;28;20061;-56
2022/10/30 09:15:23;;;;;;;12.52;4.50;;;19.00;56.30;;;;;;5035451;28;20060;-55
2022/10/30 09:17:55;;;;;;;9.23;4.50;;;19.10;56.70;;;;;;5035894;28;20053;-55
2022/10/30 09:20:23;;;;;;;12.10;4.78;;;19.10;56.10;;;;;;5035046;28;20053;-52
2022/10/30 09:22:50;;;;;;;21.48;4.68;;;19.10;56.00;;;;;;5033360;28;20064;-55
2022/10/30 09:25:17;;;;;;;9.18;3.67;;;19.20;55.80;;;;;;5030909;28;20060;-53
2022/10/30 09:27:45;;;;;;;13.60;4.10;;;19.20;55.60;;;;;;5036567;28;20056;-55
2022/10/30 09:30:14;;;;;;;13.02;4.95;;;19.30;55.60;;;;;;5035003;28;20057;-54
2022/10/30 09:32:42;;;;;;;14.95;5.20;;;19.30;55.40;;;;;;5034487;28;20060;-55
2022/10/30 09:35:09;;;;;;;15.93;4.38;;;19.40;55.40;;;;;;5035739;28;20508;-55
2022/10/30 09:37:37;;;;;;;16.77;4.18;;;19.40;55.20;;;;;;5033962;28;20065;-55
2022/10/30 09:40:05;;;;;;;14.07;4.10;;;19.40;55.00;;;;;;5032271;28;20053;-55
2022/10/30 09:42:42;;;;;;;11.13;3.78;;;19.50;55.00;;;;;;5035148;28;20065;-56
2022/10/30 09:45:57;;;;;;;14.32;5.03;;;19.60;55.00;;;;;;5031142;28;20057;-55
2022/10/30 09:48:43;;;;;;;11.10;4.00;;;19.60;54.80;;;;;;5030995;28;20060;-54
2022/10/30 09:51:24;;;;;;;13.48;4.22;;;19.60;54.70;;;;;;4986906;28;20117;-56
2022/10/30 09:54:04;;;;;;;11.15;4.40;;;19.70;54.50;;;;;;5030094;28;20058;-53
2022/10/30 09:56:35;;;;;;;12.10;3.90;;;19.70;54.30;;;;;;5031081;28;20262;-55
2022/10/30 09:59:11;;;;;;;14.10;3.97;;;19.80;54.30;;;;;;5030710;28;20065;-56
2022/10/30 10:01:46;;;;;;;11.57;3.92;;;19.80;54.00;;;;;;5030092;28;20063;-55
2022/10/30 10:04:23;;;;;;;12.88;4.10;;;19.90;53.90;;;;;;5031506;28;20414;-54
2022/10/30 10:06:56;;;;;;;15.73;4.03;;;19.90;53.70;;;;;;5032688;28;20061;-55
2022/10/30 10:09:26;;;;;;;12.37;4.10;;;20.00;53.70;;;;;;5033493;28;20053;-54
2022/10/30 10:11:56;;;;;;;13.05;4.63;;;20.00;53.60;;;;;;5033434;28;20060;-53
2022/10/30 10:14:28;;;;;;;10.02;3.95;;;20.10;53.70;;;;;;5031932;28;20053;-53
2022/10/30 10:16:59;;;;;;;11.77;4.40;;;20.10;53.90;;;;;;5033923;28;20064;-55
2022/10/30 10:19:32;;;;;;;12.57;4.25;;;20.20;53.90;;;;;;5033220;28;20072;-53
2022/10/30 10:22:02;;;;;;;14.70;4.37;;;20.20;53.80;;;;;;5023648;28;20053;-53
2022/10/30 10:24:32;;;;;;;12.50;4.28;;;20.30;53.80;;;;;;5029251;28;20383;-56
2022/10/30 10:27:09;;;;;;;8.85;4.07;;;20.30;53.90;;;;;;5032341;28;20058;-54
2022/10/30 10:29:47;;;;;;;11.32;4.32;;;20.40;53.80;;;;;;5033195;28;20389;-55
2022/10/30 10:32:47;;;;;;;9.68;4.15;;;20.40;53.70;;;;;;5030275;28;20397;-49
2022/10/30 10:35:43;;;;;;;13.55;3.97;;;20.40;53.80;;;;;;5032081;28;20064;-56
2022/10/30 10:38:20;;;;;;;9.02;4.22;;;20.50;53.80;;;;;;5028681;28;20058;-56
2022/10/30 10:40:57;;;;;;;12.63;4.45;;;20.50;53.50;;;;;;5032348;28;20514;-55
2022/10/30 10:43:36;;;;;;;12.65;3.78;;;20.60;53.40;;;;;;5033282;28;20060;-53
2022/10/30 10:46:24;;;;;;;16.20;4.70;;;20.60;53.20;;;;;;5033934;28;20053;-52
2022/10/30 10:49:08;;;;;;;14.32;3.90;;;20.70;52.80;;;;;;5033677;28;20045;-54
2022/10/30 10:51:39;;;;;;;11.93;4.05;;;20.70;52.80;;;;;;5033757;28;20061;-56
2022/10/30 10:54:12;;;;;;;11.13;3.75;;;20.70;52.80;;;;;;5031794;28;20049;-55
2022/10/30 10:56:43;;;;;;;13.18;3.65;;;20.80;52.90;;;;;;5029425;28;20049;-55
2022/10/30 10:59:20;;;;;;;10.27;3.50;;;20.80;52.80;;;;;;5032647;28;20041;-54
2022/10/30 11:01:56;;;;;;;16.60;4.57;;;20.90;52.80;;;;;;5033445;28;20053;-55
2022/10/30 11:04:31;;;;;;;11.35;4.03;;;20.90;52.90;;;;;;5022018;28;20054;-52
2022/10/30 11:06:59;;;;;;;11.15;4.22;;;20.90;53.40;;;;;;5013318;23;20061;-56
2022/10/30 11:09:27;;;;;;;10.27;4.20;;;21.00;52.90;;;;;;5010155;28;20050;-56
2022/10/30 11:11:55;;;;;;;10.07;3.38;;;21.10;52.80;;;;;;5000161;28;20057;-55
2022/10/30 11:14:24;;;;;;;9.10;4.00;;;21.10;52.50;;;;;;5011357;28;20065;-56
2022/10/30 11:17:03;;;;;;;14.15;3.83;;;21.10;52.80;;;;;;5006129;28;20053;-55
2022/10/30 11:19:32;;;;;;;11.70;4.30;;;21.20;52.20;;;;;;5000958;28;20054;-55
2022/10/30 11:22:01;;;;;;;14.75;3.78;;;21.20;52.20;;;;;;5005269;28;20058;-56
2022/10/30 11:24:31;;;;;;;9.38;3.63;;;21.20;52.00;;;;;;5003847;28;20058;-55
2022/10/30 11:27:06;;;;;;;10.07;3.40;;;21.30;51.90;;;;;;5003443;28;20053;-54
2022/10/30 11:29:33;;;;;;;10.60;4.07;;;21.40;51.70;;;;;;5006462;28;20054;-57
2022/10/30 11:32:02;;;;;;;9.35;3.60;;;21.40;51.50;;;;;;5012737;28;20054;-55
2022/10/30 11:34:33;;;;;;;8.55;3.65;;;21.40;51.30;;;;;;5005051;28;20742;-56
2022/10/30 11:37:02;;;;;;;15.68;4.72;;;21.50;50.90;;;;;;5012333;28;20053;-55
2022/10/30 11:39:31;;;;;;;15.95;4.45;;;21.50;51.00;;;;;;5001753;28;20529;-55
2022/10/30 11:42:02;;;;;;;10.68;3.65;;;21.60;50.80;;;;;;5004899;28;20054;-52
2022/10/30 11:44:33;;;;;;;10.82;3.80;;;21.60;50.50;;;;;;5010380;28;20489;-55
2022/10/30 11:47:01;;;;;;;12.27;4.13;;;21.60;50.50;;;;;;5004630;28;20065;-54
2022/10/30 11:49:37;;;;;;;11.63;4.22;;;21.70;50.60;;;;;;5004247;28;20054;-55
2022/10/30 11:52:06;;;;;;;14.48;3.75;;;21.70;50.60;;;;;;5002065;28;20506;-54
2022/10/30 11:54:37;;;;;;;10.57;3.63;;;21.70;50.70;;;;;;5006006;28;20509;-54
2022/10/30 11:57:12;;;;;;;9.65;3.40;;;21.80;50.70;;;;;;5000009;28;20058;-56
2022/10/30 11:59:45;;;;;;;12.57;3.20;;;21.80;50.70;;;;;;5010530;28;20057;-56
2022/10/30 12:02:21;;;;;;;12.23;3.63;;;21.80;50.50;;;;;;5010617;28;20060;-53
2022/10/30 12:04:50;;;;;;;12.55;3.58;;;21.90;50.40;;;;;;5011290;28;20057;-55
2022/10/30 12:07:25;;;;;;;14.13;4.38;;;21.90;50.40;;;;;;5025034;28;20057;-55
2022/10/30 12:09:52;;;;;;;10.00;3.72;;;21.90;50.40;;;;;;5027522;28;20408;-56
2022/10/30 12:12:24;;;;;;;15.20;3.95;;;22.00;50.50;;;;;;5025921;28;20049;-55
2022/10/30 12:14:53;;;;;;;9.75;3.70;;;21.90;50.20;;;;;;5030220;28;20053;-57
2022/10/30 12:17:21;;;;;;;8.25;3.60;;;22.00;50.30;;;;;;5026999;28;20360;-56
2022/10/30 12:19:52;;;;;;;6.05;3.03;;;22.00;50.30;;;;;;5030406;28;20050;-51
2022/10/30 12:22:27;;;;;;;11.93;3.40;;;22.10;50.30;;;;;;5029653;28;20049;-53
2022/10/30 12:24:54;;;;;;;9.15;3.65;;;22.10;50.20;;;;;;5025097;28;20060;-56
2022/10/30 12:27:21;;;;;;;13.13;3.42;;;22.10;50.20;;;;;;5031134;28;20053;-56
2022/10/30 12:30:01;;;;;;;6.88;3.30;;;22.20;50.30;;;;;;5025419;28;20054;-57
2022/10/30 12:32:36;;;;;;;12.95;3.67;;;22.20;50.20;;;;;;5025933;28;20413;-56
2022/10/30 12:35:09;;;;;;;9.38;3.10;;;22.30;50.20;;;;;;5029647;28;20058;-56
2022/10/30 12:37:41;;;;;;;7.17;3.57;;;22.30;50.00;;;;;;5033072;28;20064;-55
2022/10/30 12:40:14;;;;;;;6.60;3.40;;;22.30;50.20;;;;;;5032869;28;21019;-54
2022/10/30 12:42:51;;;;;;;6.85;3.10;;;22.40;50.70;;;;;;5033213;28;20049;-53
2022/10/30 12:45:23;;;;;;;13.07;3.42;;;22.40;49.80;;;;;;5027454;28;20049;-56
2022/10/30 12:47:56;;;;;;;7.85;3.55;;;22.40;49.70;;;;;;5033944;28;20060;-56
2022/10/30 12:50:27;;;;;;;8.93;3.60;;;22.40;49.70;;;;;;5031595;28;20065;-54
2022/10/30 12:53:00;;;;;;;10.98;3.50;;;22.50;49.60;;;;;;5023660;28;20513;-53
2022/10/30 12:55:35;;;;;;;13.00;3.40;;;22.50;49.50;;;;;;5034142;28;20057;-57